sensor_id;sensor_type;location;lat;lon;timestamp;P1;durP1;ratioP1;P2;durP2;ratioP2
7971;SDS011;4031;49.758;6.120;2023-04-16T00:02:19;2.20;;;1.53;;
7971;SDS011;4031;49.758;6.120;2023-04-16T00:04:45;1.97;;;1.33;;
7971;SDS011;4031;49.758;6.120;2023-04-16T00:07:11;2.50;;;2.10;;
7971;SDS011;4031;49.758;6.120;2023-04-16T00:09:37;1.47;;;1.37;;
7971;SDS011;4031;49.758;6.120;2023-04-16T00:12:03;1.03;;;0.90;;
7971;SDS011;4031;49.758;6.120;2023-04-16T00:14:30;1.83;;;1.50;;
7971;SDS011;4031;49.758;6.120;2023-04-16T00:16:56;2.30;;;1.33;;
7971;SDS011;4031;49.758;6.120;2023-04-16T00:19:21;1.83;;;1.17;;
7971;SDS011;4031;49.758;6.120;2023-04-16T00:21:47;1.33;;;1.23;;
7971;SDS011;4031;49.758;6.120;2023-04-16T00:24:13;1.27;;;1.17;;
7971;SDS011;4031;49.758;6.120;2023-04-16T00:26:38;1.40;;;1.30;;
7971;SDS011;4031;49.758;6.120;2023-04-16T00:29:05;1.20;;;1.10;;
7971;SDS011;4031;49.758;6.120;2023-04-16T00:31:31;1.90;;;1.40;;
7971;SDS011;4031;49.758;6.120;2023-04-16T00:33:58;1.43;;;1.33;;
7971;SDS011;4031;49.758;6.120;2023-04-16T00:36:24;0.70;;;0.70;;
7971;SDS011;4031;49.758;6.120;2023-04-16T00:38:53;0.97;;;0.80;;
7971;SDS011;4031;49.758;6.120;2023-04-16T00:41:19;1.93;;;1.50;;
7971;SDS011;4031;49.758;6.120;2023-04-16T00:43:46;1.30;;;1.03;;
7971;SDS011;4031;49.758;6.120;2023-04-16T00:46:13;0.80;;;0.80;;
7971;SDS011;4031;49.758;6.120;2023-04-16T00:48:49;2.47;;;1.47;;
7971;SDS011;4031;49.758;6.120;2023-04-16T00:51:17;1.90;;;1.07;;
7971;SDS011;4031;49.758;6.120;2023-04-16T00:53:46;1.53;;;0.90;;
7971;SDS011;4031;49.758;6.120;2023-04-16T00:56:12;0.80;;;0.77;;
7971;SDS011;4031;49.758;6.120;2023-04-16T00:58:38;0.60;;;0.60;;
7971;SDS011;4031;49.758;6.120;2023-04-16T01:01:04;0.70;;;0.70;;
7971;SDS011;4031;49.758;6.120;2023-04-16T01:03:36;0.90;;;0.80;;
7971;SDS011;4031;49.758;6.120;2023-04-16T01:06:05;1.53;;;0.90;;
7971;SDS011;4031;49.758;6.120;2023-04-16T01:08:31;1.40;;;1.30;;
7971;SDS011;4031;49.758;6.120;2023-04-16T01:10:57;1.47;;;1.37;;
7971;SDS011;4031;49.758;6.120;2023-04-16T01:13:23;1.20;;;1.07;;
7971;SDS011;4031;49.758;6.120;2023-04-16T01:15:48;4.10;;;0.90;;
7971;SDS011;4031;49.758;6.120;2023-04-16T01:18:15;1.60;;;1.50;;
7971;SDS011;4031;49.758;6.120;2023-04-16T01:20:41;1.67;;;1.57;;
7971;SDS011;4031;49.758;6.120;2023-04-16T01:23:07;1.47;;;1.27;;
7971;SDS011;4031;49.758;6.120;2023-04-16T01:25:33;2.93;;;1.57;;
7971;SDS011;4031;49.758;6.120;2023-04-16T01:27:59;1.73;;;1.63;;
7971;SDS011;4031;49.758;6.120;2023-04-16T01:30:25;2.07;;;1.90;;
7971;SDS011;4031;49.758;6.120;2023-04-16T01:32:50;1.20;;;1.10;;
7971;SDS011;4031;49.758;6.120;2023-04-16T01:35:16;2.03;;;1.93;;
7971;SDS011;4031;49.758;6.120;2023-04-16T01:37:42;3.10;;;2.60;;
7971;SDS011;4031;49.758;6.120;2023-04-16T01:40:08;1.57;;;1.40;;
7971;SDS011;4031;49.758;6.120;2023-04-16T01:42:34;2.37;;;1.93;;
7971;SDS011;4031;49.758;6.120;2023-04-16T01:45:01;2.30;;;2.10;;
7971;SDS011;4031;49.758;6.120;2023-04-16T01:47:27;2.63;;;2.40;;
7971;SDS011;4031;49.758;6.120;2023-04-16T01:49:52;2.17;;;1.97;;
7971;SDS011;4031;49.758;6.120;2023-04-16T01:52:18;3.23;;;1.90;;
7971;SDS011;4031;49.758;6.120;2023-04-16T01:54:44;2.63;;;2.23;;
7971;SDS011;4031;49.758;6.120;2023-04-16T01:57:10;2.67;;;1.37;;
7971;SDS011;4031;49.758;6.120;2023-04-16T01:59:35;1.67;;;1.57;;
7971;SDS011;4031;49.758;6.120;2023-04-16T02:02:03;2.53;;;2.33;;
7971;SDS011;4031;49.758;6.120;2023-04-16T02:04:38;1.80;;;1.70;;
7971;SDS011;4031;49.758;6.120;2023-04-16T02:07:05;2.27;;;1.93;;
7971;SDS011;4031;49.758;6.120;2023-04-16T02:09:38;1.70;;;1.60;;
7971;SDS011;4031;49.758;6.120;2023-04-16T02:12:05;3.43;;;2.10;;
7971;SDS011;4031;49.758;6.120;2023-04-16T02:14:32;0.77;;;0.70;;
7971;SDS011;4031;49.758;6.120;2023-04-16T02:16:58;3.60;;;1.60;;
7971;SDS011;4031;49.758;6.120;2023-04-16T02:19:24;2.00;;;1.90;;
7971;SDS011;4031;49.758;6.120;2023-04-16T02:21:51;3.10;;;2.47;;
7971;SDS011;4031;49.758;6.120;2023-04-16T02:24:17;2.40;;;1.97;;
7971;SDS011;4031;49.758;6.120;2023-04-16T02:26:44;1.83;;;1.73;;
7971;SDS011;4031;49.758;6.120;2023-04-16T02:29:10;1.47;;;1.37;;
7971;SDS011;4031;49.758;6.120;2023-04-16T02:31:36;2.47;;;2.27;;
7971;SDS011;4031;49.758;6.120;2023-04-16T02:34:02;1.70;;;1.60;;
7971;SDS011;4031;49.758;6.120;2023-04-16T02:36:28;1.80;;;1.70;;
7971;SDS011;4031;49.758;6.120;2023-04-16T02:38:55;1.50;;;1.40;;
7971;SDS011;4031;49.758;6.120;2023-04-16T02:41:22;1.73;;;1.63;;
7971;SDS011;4031;49.758;6.120;2023-04-16T02:43:48;2.00;;;1.63;;
7971;SDS011;4031;49.758;6.120;2023-04-16T02:46:13;1.97;;;1.87;;
7971;SDS011;4031;49.758;6.120;2023-04-16T02:48:39;1.90;;;1.70;;
7971;SDS011;4031;49.758;6.120;2023-04-16T02:51:05;1.23;;;1.20;;
7971;SDS011;4031;49.758;6.120;2023-04-16T02:53:30;1.47;;;1.37;;
7971;SDS011;4031;49.758;6.120;2023-04-16T02:55:56;1.47;;;1.37;;
7971;SDS011;4031;49.758;6.120;2023-04-16T02:58:22;1.57;;;1.47;;
7971;SDS011;4031;49.758;6.120;2023-04-16T03:00:53;1.40;;;1.30;;
7971;SDS011;4031;49.758;6.120;2023-04-16T03:03:19;2.10;;;1.60;;
7971;SDS011;4031;49.758;6.120;2023-04-16T03:05:45;1.80;;;1.30;;
7971;SDS011;4031;49.758;6.120;2023-04-16T03:08:11;2.00;;;1.30;;
7971;SDS011;4031;49.758;6.120;2023-04-16T03:10:37;1.77;;;1.40;;
7971;SDS011;4031;49.758;6.120;2023-04-16T03:13:03;1.80;;;1.70;;
7971;SDS011;4031;49.758;6.120;2023-04-16T03:15:29;1.57;;;1.47;;
7971;SDS011;4031;49.758;6.120;2023-04-16T03:17:55;2.17;;;1.90;;
7971;SDS011;4031;49.758;6.120;2023-04-16T03:20:21;2.30;;;1.80;;
7971;SDS011;4031;49.758;6.120;2023-04-16T03:22:47;2.07;;;1.10;;
7971;SDS011;4031;49.758;6.120;2023-04-16T03:25:13;1.87;;;1.20;;
7971;SDS011;4031;49.758;6.120;2023-04-16T03:27:39;1.90;;;1.80;;
7971;SDS011;4031;49.758;6.120;2023-04-16T03:30:06;1.70;;;1.57;;
7971;SDS011;4031;49.758;6.120;2023-04-16T03:32:34;1.63;;;1.53;;
7971;SDS011;4031;49.758;6.120;2023-04-16T03:35:01;1.97;;;1.60;;
7971;SDS011;4031;49.758;6.120;2023-04-16T03:37:28;3.63;;;2.03;;
7971;SDS011;4031;49.758;6.120;2023-04-16T03:39:53;1.53;;;1.43;;
7971;SDS011;4031;49.758;6.120;2023-04-16T03:42:19;1.60;;;1.50;;
7971;SDS011;4031;49.758;6.120;2023-04-16T03:44:45;1.00;;;0.93;;
7971;SDS011;4031;49.758;6.120;2023-04-16T03:47:11;2.23;;;2.03;;
7971;SDS011;4031;49.758;6.120;2023-04-16T03:49:36;1.97;;;1.80;;
7971;SDS011;4031;49.758;6.120;2023-04-16T03:52:03;2.77;;;1.73;;
7971;SDS011;4031;49.758;6.120;2023-04-16T03:54:28;1.50;;;1.40;;
7971;SDS011;4031;49.758;6.120;2023-04-16T03:56:54;3.20;;;1.80;;
7971;SDS011;4031;49.758;6.120;2023-04-16T03:59:21;2.20;;;1.80;;
7971;SDS011;4031;49.758;6.120;2023-04-16T04:01:46;1.33;;;0.77;;
7971;SDS011;4031;49.758;6.120;2023-04-16T04:04:12;5.43;;;2.10;;
7971;SDS011;4031;49.758;6.120;2023-04-16T04:06:38;1.57;;;1.40;;
7971;SDS011;4031;49.758;6.120;2023-04-16T04:09:04;2.77;;;2.20;;
7971;SDS011;4031;49.758;6.120;2023-04-16T04:11:30;2.40;;;2.20;;
7971;SDS011;4031;49.758;6.120;2023-04-16T04:13:56;4.90;;;2.27;;
7971;SDS011;4031;49.758;6.120;2023-04-16T04:16:21;2.17;;;1.97;;
7971;SDS011;4031;49.758;6.120;2023-04-16T04:18:47;1.83;;;1.73;;
7971;SDS011;4031;49.758;6.120;2023-04-16T04:21:13;2.80;;;2.50;;
7971;SDS011;4031;49.758;6.120;2023-04-16T04:23:38;1.80;;;1.70;;
7971;SDS011;4031;49.758;6.120;2023-04-16T04:26:05;2.00;;;1.80;;
7971;SDS011;4031;49.758;6.120;2023-04-16T04:28:31;2.60;;;2.20;;
7971;SDS011;4031;49.758;6.120;2023-04-16T04:30:57;3.10;;;2.43;;
7971;SDS011;4031;49.758;6.120;2023-04-16T04:33:27;7.40;;;3.10;;
7971;SDS011;4031;49.758;6.120;2023-04-16T04:35:53;2.53;;;2.33;;
7971;SDS011;4031;49.758;6.120;2023-04-16T04:38:19;2.60;;;2.40;;
7971;SDS011;4031;49.758;6.120;2023-04-16T04:40:49;2.07;;;1.93;;
7971;SDS011;4031;49.758;6.120;2023-04-16T04:43:18;2.93;;;2.63;;
7971;SDS011;4031;49.758;6.120;2023-04-16T04:45:44;3.10;;;2.43;;
7971;SDS011;4031;49.758;6.120;2023-04-16T04:48:11;3.40;;;3.00;;
7971;SDS011;4031;49.758;6.120;2023-04-16T04:50:37;2.87;;;2.60;;
7971;SDS011;4031;49.758;6.120;2023-04-16T04:53:04;4.97;;;3.60;;
7971;SDS011;4031;49.758;6.120;2023-04-16T04:55:34;3.80;;;2.90;;
7971;SDS011;4031;49.758;6.120;2023-04-16T04:58:06;3.17;;;2.87;;
7971;SDS011;4031;49.758;6.120;2023-04-16T05:00:33;4.00;;;3.20;;
7971;SDS011;4031;49.758;6.120;2023-04-16T05:03:04;3.77;;;3.30;;
7971;SDS011;4031;49.758;6.120;2023-04-16T05:05:32;3.97;;;3.17;;
7971;SDS011;4031;49.758;6.120;2023-04-16T05:07:58;3.57;;;3.27;;
7971;SDS011;4031;49.758;6.120;2023-04-16T05:10:23;4.67;;;3.30;;
7971;SDS011;4031;49.758;6.120;2023-04-16T05:12:49;4.57;;;3.30;;
7971;SDS011;4031;49.758;6.120;2023-04-16T05:15:15;3.70;;;3.07;;
7971;SDS011;4031;49.758;6.120;2023-04-16T05:17:41;4.80;;;3.57;;
7971;SDS011;4031;49.758;6.120;2023-04-16T05:20:09;3.93;;;3.20;;
7971;SDS011;4031;49.758;6.120;2023-04-16T05:22:35;2.50;;;2.30;;
7971;SDS011;4031;49.758;6.120;2023-04-16T05:25:01;3.20;;;2.40;;
7971;SDS011;4031;49.758;6.120;2023-04-16T05:27:27;3.50;;;2.73;;
7971;SDS011;4031;49.758;6.120;2023-04-16T05:29:53;2.57;;;2.13;;
7971;SDS011;4031;49.758;6.120;2023-04-16T05:32:19;3.90;;;3.60;;
7971;SDS011;4031;49.758;6.120;2023-04-16T05:34:44;3.50;;;3.20;;
7971;SDS011;4031;49.758;6.120;2023-04-16T05:37:10;4.13;;;3.20;;
7971;SDS011;4031;49.758;6.120;2023-04-16T05:39:36;4.13;;;2.90;;
7971;SDS011;4031;49.758;6.120;2023-04-16T05:42:01;4.00;;;2.40;;
7971;SDS011;4031;49.758;6.120;2023-04-16T05:44:27;3.77;;;3.30;;
7971;SDS011;4031;49.758;6.120;2023-04-16T05:46:53;4.80;;;3.10;;
7971;SDS011;4031;49.758;6.120;2023-04-16T05:49:19;4.43;;;3.03;;
7971;SDS011;4031;49.758;6.120;2023-04-16T05:51:46;3.47;;;3.17;;
7971;SDS011;4031;49.758;6.120;2023-04-16T05:54:12;4.60;;;3.07;;
7971;SDS011;4031;49.758;6.120;2023-04-16T05:56:38;3.50;;;2.87;;
7971;SDS011;4031;49.758;6.120;2023-04-16T05:59:03;3.23;;;2.57;;
7971;SDS011;4031;49.758;6.120;2023-04-16T06:01:29;4.87;;;3.33;;
7971;SDS011;4031;49.758;6.120;2023-04-16T06:03:55;3.77;;;3.30;;
7971;SDS011;4031;49.758;6.120;2023-04-16T06:06:21;4.33;;;2.87;;
7971;SDS011;4031;49.758;6.120;2023-04-16T06:08:47;2.10;;;1.80;;
7971;SDS011;4031;49.758;6.120;2023-04-16T06:11:12;2.53;;;2.30;;
7971;SDS011;4031;49.758;6.120;2023-04-16T06:13:38;4.70;;;3.00;;
7971;SDS011;4031;49.758;6.120;2023-04-16T06:16:04;3.60;;;2.77;;
7971;SDS011;4031;49.758;6.120;2023-04-16T06:18:30;3.23;;;2.27;;
7971;SDS011;4031;49.758;6.120;2023-04-16T06:20:56;4.37;;;2.57;;
7971;SDS011;4031;49.758;6.120;2023-04-16T06:23:23;5.17;;;2.60;;
7971;SDS011;4031;49.758;6.120;2023-04-16T06:25:48;4.73;;;3.50;;
7971;SDS011;4031;49.758;6.120;2023-04-16T06:28:14;4.30;;;2.87;;
7971;SDS011;4031;49.758;6.120;2023-04-16T06:30:40;4.77;;;3.43;;
7971;SDS011;4031;49.758;6.120;2023-04-16T06:33:05;4.07;;;2.67;;
7971;SDS011;4031;49.758;6.120;2023-04-16T06:35:31;4.73;;;2.90;;
7971;SDS011;4031;49.758;6.120;2023-04-16T06:37:57;3.20;;;2.90;;
7971;SDS011;4031;49.758;6.120;2023-04-16T06:40:22;2.40;;;2.00;;
7971;SDS011;4031;49.758;6.120;2023-04-16T06:42:48;3.60;;;2.63;;
7971;SDS011;4031;49.758;6.120;2023-04-16T06:45:14;5.10;;;3.50;;
7971;SDS011;4031;49.758;6.120;2023-04-16T06:47:40;4.03;;;2.60;;
7971;SDS011;4031;49.758;6.120;2023-04-16T06:50:06;3.47;;;3.00;;
7971;SDS011;4031;49.758;6.120;2023-04-16T06:52:32;3.90;;;2.80;;
7971;SDS011;4031;49.758;6.120;2023-04-16T06:54:57;5.70;;;2.27;;
7971;SDS011;4031;49.758;6.120;2023-04-16T06:57:23;3.53;;;2.73;;
7971;SDS011;4031;49.758;6.120;2023-04-16T06:59:49;5.40;;;2.97;;
7971;SDS011;4031;49.758;6.120;2023-04-16T07:02:15;3.77;;;3.20;;
7971;SDS011;4031;49.758;6.120;2023-04-16T07:04:40;3.13;;;2.40;;
7971;SDS011;4031;49.758;6.120;2023-04-16T07:07:07;4.87;;;3.17;;
7971;SDS011;4031;49.758;6.120;2023-04-16T07:09:33;4.10;;;2.57;;
7971;SDS011;4031;49.758;6.120;2023-04-16T07:11:58;4.00;;;3.20;;
7971;SDS011;4031;49.758;6.120;2023-04-16T07:14:24;5.40;;;3.00;;
7971;SDS011;4031;49.758;6.120;2023-04-16T07:16:50;4.50;;;3.23;;
7971;SDS011;4031;49.758;6.120;2023-04-16T07:19:15;3.90;;;3.13;;
7971;SDS011;4031;49.758;6.120;2023-04-16T07:21:41;4.10;;;2.60;;
7971;SDS011;4031;49.758;6.120;2023-04-16T07:24:08;3.23;;;2.53;;
7971;SDS011;4031;49.758;6.120;2023-04-16T07:26:38;3.53;;;2.30;;
7971;SDS011;4031;49.758;6.120;2023-04-16T07:29:03;6.70;;;2.57;;
7971;SDS011;4031;49.758;6.120;2023-04-16T07:31:29;3.30;;;2.47;;
7971;SDS011;4031;49.758;6.120;2023-04-16T07:33:55;3.83;;;3.40;;
7971;SDS011;4031;49.758;6.120;2023-04-16T07:36:22;3.40;;;2.10;;
7971;SDS011;4031;49.758;6.120;2023-04-16T07:38:47;4.03;;;2.83;;
7971;SDS011;4031;49.758;6.120;2023-04-16T07:41:13;4.93;;;2.10;;
7971;SDS011;4031;49.758;6.120;2023-04-16T07:43:39;2.53;;;2.33;;
7971;SDS011;4031;49.758;6.120;2023-04-16T07:46:04;3.20;;;2.13;;
7971;SDS011;4031;49.758;6.120;2023-04-16T07:48:30;2.43;;;1.93;;
7971;SDS011;4031;49.758;6.120;2023-04-16T07:50:56;3.17;;;2.80;;
7971;SDS011;4031;49.758;6.120;2023-04-16T07:53:22;3.03;;;2.67;;
7971;SDS011;4031;49.758;6.120;2023-04-16T07:55:47;2.10;;;1.70;;
7971;SDS011;4031;49.758;6.120;2023-04-16T07:58:13;3.90;;;2.73;;
7971;SDS011;4031;49.758;6.120;2023-04-16T08:00:39;2.17;;;2.00;;
7971;SDS011;4031;49.758;6.120;2023-04-16T08:03:04;3.70;;;2.57;;
7971;SDS011;4031;49.758;6.120;2023-04-16T08:05:30;3.50;;;2.43;;
7971;SDS011;4031;49.758;6.120;2023-04-16T08:07:56;3.37;;;2.93;;
7971;SDS011;4031;49.758;6.120;2023-04-16T08:10:21;2.40;;;2.20;;
7971;SDS011;4031;49.758;6.120;2023-04-16T08:12:47;2.23;;;2.03;;
7971;SDS011;4031;49.758;6.120;2023-04-16T08:15:13;3.30;;;2.40;;
7971;SDS011;4031;49.758;6.120;2023-04-16T08:17:39;3.83;;;2.90;;
7971;SDS011;4031;49.758;6.120;2023-04-16T08:20:05;3.80;;;2.57;;
7971;SDS011;4031;49.758;6.120;2023-04-16T08:22:31;3.23;;;2.40;;
7971;SDS011;4031;49.758;6.120;2023-04-16T08:24:57;4.03;;;2.30;;
7971;SDS011;4031;49.758;6.120;2023-04-16T08:27:23;2.73;;;2.30;;
7971;SDS011;4031;49.758;6.120;2023-04-16T08:29:49;3.23;;;2.83;;
7971;SDS011;4031;49.758;6.120;2023-04-16T08:32:14;2.77;;;1.87;;
7971;SDS011;4031;49.758;6.120;2023-04-16T08:34:40;3.50;;;2.97;;
7971;SDS011;4031;49.758;6.120;2023-04-16T08:37:06;2.27;;;2.07;;
7971;SDS011;4031;49.758;6.120;2023-04-16T08:39:33;2.83;;;2.57;;
7971;SDS011;4031;49.758;6.120;2023-04-16T08:41:59;2.90;;;2.27;;
7971;SDS011;4031;49.758;6.120;2023-04-16T08:44:32;3.47;;;2.70;;
7971;SDS011;4031;49.758;6.120;2023-04-16T08:47:01;2.90;;;2.40;;
7971;SDS011;4031;49.758;6.120;2023-04-16T08:49:27;3.60;;;2.30;;
7971;SDS011;4031;49.758;6.120;2023-04-16T08:51:54;2.60;;;2.40;;
7971;SDS011;4031;49.758;6.120;2023-04-16T08:57:00;2.93;;;2.30;;
7971;SDS011;4031;49.758;6.120;2023-04-16T08:59:30;2.27;;;2.03;;
7971;SDS011;4031;49.758;6.120;2023-04-16T09:01:57;2.40;;;2.20;;
7971;SDS011;4031;49.758;6.120;2023-04-16T09:04:25;3.50;;;3.03;;
7971;SDS011;4031;49.758;6.120;2023-04-16T09:06:54;2.30;;;2.10;;
7971;SDS011;4031;49.758;6.120;2023-04-16T09:09:22;2.73;;;2.20;;
7971;SDS011;4031;49.758;6.120;2023-04-16T09:11:52;1.27;;;1.03;;
7971;SDS011;4031;49.758;6.120;2023-04-16T09:14:18;2.47;;;1.77;;
7971;SDS011;4031;49.758;6.120;2023-04-16T09:16:44;5.30;;;1.97;;
7971;SDS011;4031;49.758;6.120;2023-04-16T09:19:14;3.30;;;2.33;;
7971;SDS011;4031;49.758;6.120;2023-04-16T09:21:40;3.30;;;2.10;;
7971;SDS011;4031;49.758;6.120;2023-04-16T09:24:07;3.03;;;1.57;;
7971;SDS011;4031;49.758;6.120;2023-04-16T09:26:34;2.57;;;2.33;;
7971;SDS011;4031;49.758;6.120;2023-04-16T09:29:00;4.27;;;2.77;;
7971;SDS011;4031;49.758;6.120;2023-04-16T09:31:26;1.93;;;1.83;;
7971;SDS011;4031;49.758;6.120;2023-04-16T09:34:02;3.20;;;2.30;;
7971;SDS011;4031;49.758;6.120;2023-04-16T09:36:30;2.37;;;2.17;;
7971;SDS011;4031;49.758;6.120;2023-04-16T09:38:57;2.50;;;2.30;;
7971;SDS011;4031;49.758;6.120;2023-04-16T09:41:24;3.20;;;2.73;;
7971;SDS011;4031;49.758;6.120;2023-04-16T09:46:28;3.23;;;2.13;;
7971;SDS011;4031;49.758;6.120;2023-04-16T09:49:08;3.10;;;2.80;;
7971;SDS011;4031;49.758;6.120;2023-04-16T09:51:43;2.20;;;1.53;;
7971;SDS011;4031;49.758;6.120;2023-04-16T09:54:13;3.63;;;2.33;;
7971;SDS011;4031;49.758;6.120;2023-04-16T09:56:43;4.60;;;3.20;;
7971;SDS011;4031;49.758;6.120;2023-04-16T10:01:46;2.87;;;2.67;;
7971;SDS011;4031;49.758;6.120;2023-04-16T10:04:17;2.70;;;2.50;;
7971;SDS011;4031;49.758;6.120;2023-04-16T10:06:44;3.40;;;3.10;;
7971;SDS011;4031;49.758;6.120;2023-04-16T10:09:30;3.73;;;2.80;;
7971;SDS011;4031;49.758;6.120;2023-04-16T10:12:02;2.60;;;2.30;;
7971;SDS011;4031;49.758;6.120;2023-04-16T10:14:29;3.30;;;3.00;;
7971;SDS011;4031;49.758;6.120;2023-04-16T10:16:55;3.53;;;3.23;;
7971;SDS011;4031;49.758;6.120;2023-04-16T10:19:21;2.73;;;2.40;;
7971;SDS011;4031;49.758;6.120;2023-04-16T10:21:49;2.50;;;2.30;;
7971;SDS011;4031;49.758;6.120;2023-04-16T10:24:15;3.10;;;1.97;;
7971;SDS011;4031;49.758;6.120;2023-04-16T10:26:42;3.43;;;3.13;;
7971;SDS011;4031;49.758;6.120;2023-04-16T10:29:10;3.33;;;2.93;;
7971;SDS011;4031;49.758;6.120;2023-04-16T10:31:37;3.97;;;2.87;;
7971;SDS011;4031;49.758;6.120;2023-04-16T10:34:05;2.83;;;2.63;;
7971;SDS011;4031;49.758;6.120;2023-04-16T10:36:35;3.40;;;2.90;;
7971;SDS011;4031;49.758;6.120;2023-04-16T10:39:01;2.97;;;2.60;;
7971;SDS011;4031;49.758;6.120;2023-04-16T10:41:28;2.83;;;2.63;;
7971;SDS011;4031;49.758;6.120;2023-04-16T10:44:04;3.63;;;3.07;;
7971;SDS011;4031;49.758;6.120;2023-04-16T10:46:36;3.17;;;2.87;;
7971;SDS011;4031;49.758;6.120;2023-04-16T10:49:17;2.60;;;2.40;;
7971;SDS011;4031;49.758;6.120;2023-04-16T10:54:27;3.07;;;2.53;;
7971;SDS011;4031;49.758;6.120;2023-04-16T10:56:55;2.47;;;2.27;;
7971;SDS011;4031;49.758;6.120;2023-04-16T10:59:24;2.07;;;1.90;;
7971;SDS011;4031;49.758;6.120;2023-04-16T11:01:55;2.97;;;2.70;;
7971;SDS011;4031;49.758;6.120;2023-04-16T11:04:25;4.50;;;2.30;;
7971;SDS011;4031;49.758;6.120;2023-04-16T11:09:52;3.77;;;3.00;;
7971;SDS011;4031;49.758;6.120;2023-04-16T11:12:24;2.53;;;2.33;;
7971;SDS011;4031;49.758;6.120;2023-04-16T11:17:49;2.50;;;2.30;;
7971;SDS011;4031;49.758;6.120;2023-04-16T11:20:17;3.07;;;2.77;;
7971;SDS011;4031;49.758;6.120;2023-04-16T11:22:45;2.90;;;2.63;;
7971;SDS011;4031;49.758;6.120;2023-04-16T11:25:21;2.57;;;2.37;;
7971;SDS011;4031;49.758;6.120;2023-04-16T11:27:53;2.37;;;2.17;;
7971;SDS011;4031;49.758;6.120;2023-04-16T11:30:33;2.30;;;2.10;;
7971;SDS011;4031;49.758;6.120;2023-04-16T11:33:09;4.33;;;2.73;;
7971;SDS011;4031;49.758;6.120;2023-04-16T11:35:36;2.97;;;2.77;;
7971;SDS011;4031;49.758;6.120;2023-04-16T11:38:03;2.47;;;2.27;;
7971;SDS011;4031;49.758;6.120;2023-04-16T11:40:32;2.80;;;2.13;;
7971;SDS011;4031;49.758;6.120;2023-04-16T11:43:02;2.40;;;2.20;;
7971;SDS011;4031;49.758;6.120;2023-04-16T11:45:37;2.70;;;2.50;;
7971;SDS011;4031;49.758;6.120;2023-04-16T11:48:03;2.47;;;2.20;;
7971;SDS011;4031;49.758;6.120;2023-04-16T11:50:29;2.77;;;2.47;;
7971;SDS011;4031;49.758;6.120;2023-04-16T11:52:56;2.30;;;2.07;;
7971;SDS011;4031;49.758;6.120;2023-04-16T11:55:27;2.73;;;2.53;;
7971;SDS011;4031;49.758;6.120;2023-04-16T11:57:53;2.97;;;2.67;;
7971;SDS011;4031;49.758;6.120;2023-04-16T12:00:19;1.93;;;1.80;;
7971;SDS011;4031;49.758;6.120;2023-04-16T12:02:50;1.83;;;1.73;;
7971;SDS011;4031;49.758;6.120;2023-04-16T12:08:06;2.73;;;1.90;;
7971;SDS011;4031;49.758;6.120;2023-04-16T12:10:34;2.87;;;2.60;;
7971;SDS011;4031;49.758;6.120;2023-04-16T12:13:16;2.43;;;2.00;;
7971;SDS011;4031;49.758;6.120;2023-04-16T12:15:43;2.57;;;2.30;;
7971;SDS011;4031;49.758;6.120;2023-04-16T12:18:13;2.47;;;2.27;;
7971;SDS011;4031;49.758;6.120;2023-04-16T12:20:40;4.40;;;2.40;;
7971;SDS011;4031;49.758;6.120;2023-04-16T12:23:07;2.57;;;2.37;;
7971;SDS011;4031;49.758;6.120;2023-04-16T12:25:33;1.83;;;1.53;;
7971;SDS011;4031;49.758;6.120;2023-04-16T12:27:59;1.80;;;1.70;;
7971;SDS011;4031;49.758;6.120;2023-04-16T12:30:26;3.73;;;2.20;;
7971;SDS011;4031;49.758;6.120;2023-04-16T12:32:52;3.80;;;2.90;;
7971;SDS011;4031;49.758;6.120;2023-04-16T12:35:40;2.57;;;2.20;;
7971;SDS011;4031;49.758;6.120;2023-04-16T12:38:07;4.10;;;2.20;;
7971;SDS011;4031;49.758;6.120;2023-04-16T12:40:33;2.40;;;2.10;;
7971;SDS011;4031;49.758;6.120;2023-04-16T12:43:00;1.70;;;1.60;;
7971;SDS011;4031;49.758;6.120;2023-04-16T12:45:26;2.10;;;1.90;;
7971;SDS011;4031;49.758;6.120;2023-04-16T12:47:52;2.80;;;2.53;;
7971;SDS011;4031;49.758;6.120;2023-04-16T12:50:18;2.10;;;1.97;;
7971;SDS011;4031;49.758;6.120;2023-04-16T12:52:43;2.40;;;2.20;;
7971;SDS011;4031;49.758;6.120;2023-04-16T12:55:09;1.70;;;1.60;;
7971;SDS011;4031;49.758;6.120;2023-04-16T12:57:35;2.43;;;1.97;;
7971;SDS011;4031;49.758;6.120;2023-04-16T13:00:01;2.87;;;2.20;;
7971;SDS011;4031;49.758;6.120;2023-04-16T13:02:30;2.70;;;2.27;;
7971;SDS011;4031;49.758;6.120;2023-04-16T13:04:56;2.73;;;2.53;;
7971;SDS011;4031;49.758;6.120;2023-04-16T13:07:23;2.67;;;2.17;;
7971;SDS011;4031;49.758;6.120;2023-04-16T13:09:50;2.30;;;2.10;;
7971;SDS011;4031;49.758;6.120;2023-04-16T13:12:16;2.73;;;2.53;;
7971;SDS011;4031;49.758;6.120;2023-04-16T13:14:42;2.63;;;2.33;;
7971;SDS011;4031;49.758;6.120;2023-04-16T13:17:08;4.17;;;2.70;;
7971;SDS011;4031;49.758;6.120;2023-04-16T13:19:33;2.60;;;2.40;;
7971;SDS011;4031;49.758;6.120;2023-04-16T13:21:59;2.67;;;2.47;;
7971;SDS011;4031;49.758;6.120;2023-04-16T13:24:25;2.83;;;2.53;;
7971;SDS011;4031;49.758;6.120;2023-04-16T13:26:50;2.53;;;2.33;;
7971;SDS011;4031;49.758;6.120;2023-04-16T13:29:16;2.73;;;2.53;;
7971;SDS011;4031;49.758;6.120;2023-04-16T13:31:43;2.90;;;2.20;;
7971;SDS011;4031;49.758;6.120;2023-04-16T13:34:09;2.30;;;2.10;;
7971;SDS011;4031;49.758;6.120;2023-04-16T13:36:35;2.00;;;1.80;;
7971;SDS011;4031;49.758;6.120;2023-04-16T13:39:00;2.87;;;2.30;;
7971;SDS011;4031;49.758;6.120;2023-04-16T13:41:29;2.00;;;1.80;;
7971;SDS011;4031;49.758;6.120;2023-04-16T13:43:55;2.00;;;1.90;;
7971;SDS011;4031;49.758;6.120;2023-04-16T13:46:21;2.37;;;2.17;;
7971;SDS011;4031;49.758;6.120;2023-04-16T13:48:47;1.87;;;1.70;;
7971;SDS011;4031;49.758;6.120;2023-04-16T13:51:13;2.10;;;2.00;;
7971;SDS011;4031;49.758;6.120;2023-04-16T13:53:39;2.40;;;2.20;;
7971;SDS011;4031;49.758;6.120;2023-04-16T13:56:05;1.40;;;1.30;;
7971;SDS011;4031;49.758;6.120;2023-04-16T13:58:31;1.93;;;1.60;;
7971;SDS011;4031;49.758;6.120;2023-04-16T14:00:57;2.47;;;2.27;;
7971;SDS011;4031;49.758;6.120;2023-04-16T14:03:24;1.73;;;1.63;;
7971;SDS011;4031;49.758;6.120;2023-04-16T14:05:50;1.60;;;1.50;;
7971;SDS011;4031;49.758;6.120;2023-04-16T14:08:16;2.00;;;1.80;;
7971;SDS011;4031;49.758;6.120;2023-04-16T14:10:45;3.00;;;2.80;;
7971;SDS011;4031;49.758;6.120;2023-04-16T14:13:14;3.30;;;2.83;;
7971;SDS011;4031;49.758;6.120;2023-04-16T14:15:40;2.30;;;1.80;;
7971;SDS011;4031;49.758;6.120;2023-04-16T14:18:05;2.33;;;2.13;;
7971;SDS011;4031;49.758;6.120;2023-04-16T14:20:31;2.70;;;2.50;;
7971;SDS011;4031;49.758;6.120;2023-04-16T14:22:57;2.57;;;2.37;;
7971;SDS011;4031;49.758;6.120;2023-04-16T14:25:23;1.80;;;1.70;;
7971;SDS011;4031;49.758;6.120;2023-04-16T14:27:48;2.00;;;1.77;;
7971;SDS011;4031;49.758;6.120;2023-04-16T14:30:15;3.13;;;2.93;;
7971;SDS011;4031;49.758;6.120;2023-04-16T14:32:40;3.30;;;3.00;;
7971;SDS011;4031;49.758;6.120;2023-04-16T14:35:06;3.63;;;2.93;;
7971;SDS011;4031;49.758;6.120;2023-04-16T14:37:34;3.40;;;2.67;;
7971;SDS011;4031;49.758;6.120;2023-04-16T14:40:00;2.60;;;2.40;;
7971;SDS011;4031;49.758;6.120;2023-04-16T14:42:31;3.43;;;3.10;;
7971;SDS011;4031;49.758;6.120;2023-04-16T14:44:57;3.90;;;3.10;;
7971;SDS011;4031;49.758;6.120;2023-04-16T14:47:23;4.00;;;3.43;;
7971;SDS011;4031;49.758;6.120;2023-04-16T14:49:48;2.80;;;2.60;;
7971;SDS011;4031;49.758;6.120;2023-04-16T14:52:14;3.90;;;3.50;;
7971;SDS011;4031;49.758;6.120;2023-04-16T14:54:40;2.47;;;2.27;;
7971;SDS011;4031;49.758;6.120;2023-04-16T14:57:06;3.00;;;2.50;;
7971;SDS011;4031;49.758;6.120;2023-04-16T14:59:31;4.43;;;3.73;;
7971;SDS011;4031;49.758;6.120;2023-04-16T15:01:57;3.93;;;3.63;;
7971;SDS011;4031;49.758;6.120;2023-04-16T15:04:23;4.30;;;3.33;;
7971;SDS011;4031;49.758;6.120;2023-04-16T15:06:49;2.20;;;1.87;;
7971;SDS011;4031;49.758;6.120;2023-04-16T15:09:15;4.40;;;3.80;;
7971;SDS011;4031;49.758;6.120;2023-04-16T15:11:41;4.50;;;3.70;;
7971;SDS011;4031;49.758;6.120;2023-04-16T15:14:06;5.67;;;4.60;;
7971;SDS011;4031;49.758;6.120;2023-04-16T15:16:32;3.57;;;3.20;;
7971;SDS011;4031;49.758;6.120;2023-04-16T15:18:58;5.90;;;4.73;;
7971;SDS011;4031;49.758;6.120;2023-04-16T15:21:24;4.70;;;3.80;;
7971;SDS011;4031;49.758;6.120;2023-04-16T15:23:51;6.53;;;4.10;;
7971;SDS011;4031;49.758;6.120;2023-04-16T15:26:17;4.93;;;3.77;;
7971;SDS011;4031;49.758;6.120;2023-04-16T15:28:43;2.67;;;2.20;;
7971;SDS011;4031;49.758;6.120;2023-04-16T15:31:09;5.80;;;4.40;;
7971;SDS011;4031;49.758;6.120;2023-04-16T15:33:35;6.37;;;5.53;;